createdAt,value
2023-03-28T04:35:01.235Z,0.77
2023-03-28T04:37:30.331Z,0.25
2023-03-28T04:40:03.828Z,0.25
2023-03-28T04:42:42.541Z,-0.05
2023-03-28T04:45:23.628Z,-0.12
2023-03-28T04:47:53.806Z,-0.09
2023-03-28T04:50:25.352Z,-0.23
2023-03-28T04:52:53.786Z,-0.29
2023-03-28T04:55:22.148Z,-0.40
2023-03-28T04:57:51.954Z,-0.03
2023-03-28T05:00:23.476Z,-0.21
2023-03-28T05:03:05.680Z,-0.08
2023-03-28T05:05:41.971Z,-0.21
2023-03-28T05:08:14.739Z,-0.30
2023-03-28T05:10:44.330Z,-0.03
2023-03-28T05:13:12.839Z,0.27
2023-03-28T05:15:47.524Z,-0.10
2023-03-28T05:18:45.190Z,-0.08
2023-03-28T05:21:16.612Z,0.00
2023-03-28T05:23:44.955Z,0.00
2023-03-28T05:26:23.102Z,0.11
2023-03-28T05:28:52.563Z,0.22
2023-03-28T05:31:21.953Z,0.39
2023-03-28T05:34:03.739Z,0.21
2023-03-28T05:36:41.970Z,0.09
2023-03-28T05:39:21.115Z,0.04
2023-03-28T05:41:49.549Z,-0.01
2023-03-28T05:44:18.952Z,-0.08
2023-03-28T05:47:19.247Z,-0.04
2023-03-28T05:49:47.625Z,0.05
2023-03-28T05:52:18.126Z,0.14
2023-03-28T05:54:52.152Z,0.17
2023-03-28T05:57:22.945Z,0.20
2023-03-28T05:59:51.735Z,0.28
2023-03-28T06:02:23.757Z,0.31
2023-03-28T06:04:58.029Z,0.31
2023-03-28T06:07:41.531Z,0.40
2023-03-28T06:10:14.447Z,0.46
2023-03-28T06:12:51.437Z,0.52
2023-03-28T06:15:20.004Z,0.64
2023-03-28T06:17:50.770Z,0.68
2023-03-28T06:20:19.320Z,0.81
2023-03-28T06:22:49.867Z,1.03
2023-03-28T06:25:18.464Z,1.06
2023-03-28T06:27:46.741Z,1.11
2023-03-28T06:30:18.652Z,1.21
2023-03-28T06:32:51.319Z,1.28
2023-03-28T06:35:19.839Z,1.25
2023-03-28T06:37:49.514Z,1.31
2023-03-28T06:40:24.653Z,1.38
2023-03-28T06:42:52.968Z,1.42
2023-03-28T06:45:38.292Z,1.38
2023-03-28T06:48:12.525Z,1.69
2023-03-28T06:51:02.785Z,1.88
2023-03-28T06:53:32.722Z,1.88
2023-03-28T06:56:02.002Z,1.79
2023-03-28T06:58:31.824Z,1.98
2023-03-28T07:01:07.580Z,2.10
2023-03-28T07:03:57.643Z,1.91
2023-03-28T07:06:29.399Z,2.17
2023-03-28T07:08:59.535Z,2.23
2023-03-28T07:11:38.277Z,2.33
2023-03-28T07:14:06.609Z,2.03
2023-03-28T07:16:34.960Z,2.27
2023-03-28T07:19:04.318Z,2.39
2023-03-28T07:21:35.620Z,2.38
2023-03-28T07:24:08.303Z,2.35
2023-03-28T07:27:14.745Z,2.47
2023-03-28T07:29:45.564Z,2.80
2023-03-28T07:32:14.247Z,2.94
2023-03-28T07:34:45.894Z,2.71
2023-03-28T07:37:19.824Z,2.85
2023-03-28T07:40:00.270Z,3.25
2023-03-28T07:42:29.259Z,3.19
2023-03-28T07:44:57.851Z,3.00
2023-03-28T07:47:26.264Z,3.19
2023-03-28T07:49:54.586Z,3.29
2023-03-28T07:52:23.656Z,3.11
2023-03-28T07:54:54.047Z,3.21
2023-03-28T07:57:24.115Z,3.15
2023-03-28T08:00:13.451Z,3.22
2023-03-28T08:02:44.719Z,3.24
2023-03-28T08:05:14.819Z,3.41
2023-03-28T08:07:46.086Z,3.59
2023-03-28T08:10:15.420Z,3.39
2023-03-28T08:12:45.754Z,3.49
2023-03-28T08:15:16.627Z,3.51
2023-03-28T08:17:44.990Z,3.68
2023-03-28T08:20:14.021Z,3.71
2023-03-28T08:23:07.696Z,4.15
2023-03-28T08:25:45.330Z,3.82
2023-03-28T08:28:19.105Z,3.69
2023-03-28T08:30:47.494Z,3.84
2023-03-28T08:33:17.580Z,4.08
2023-03-28T08:35:46.803Z,4.13
2023-03-28T08:38:19.717Z,4.02
2023-03-28T08:40:56.779Z,4.15
2023-03-28T08:43:40.085Z,4.07
2023-03-28T08:46:08.708Z,4.03
2023-03-28T08:48:41.650Z,4.18
2023-03-28T08:51:16.561Z,4.10
2023-03-28T08:53:47.852Z,4.36
2023-03-28T08:56:17.248Z,4.67
2023-03-28T08:58:58.229Z,4.96
2023-03-28T09:01:34.439Z,4.66
2023-03-28T09:04:03.872Z,4.91
2023-03-28T09:06:38.274Z,4.98
2023-03-28T09:09:28.355Z,4.76
2023-03-28T09:12:26.859Z,4.58
2023-03-28T09:15:21.217Z,4.78
2023-03-28T09:18:01.441Z,4.57
2023-03-28T09:20:37.128Z,4.85
2023-03-28T09:23:38.296Z,4.95
2023-03-28T09:29:19.677Z,5.08
2023-03-28T09:32:03.518Z,4.88
2023-03-28T09:34:48.194Z,5.20
2023-03-28T09:37:26.085Z,5.30
2023-03-28T09:39:56.776Z,5.04
2023-03-28T09:42:45.222Z,5.29
2023-03-28T09:45:48.288Z,4.90
2023-03-28T09:48:38.310Z,5.28
2023-03-28T09:51:15.536Z,5.96
2023-03-28T09:53:43.873Z,5.83
2023-03-28T09:56:22.357Z,5.75
2023-03-28T09:58:52.379Z,5.95
2023-03-28T10:01:33.109Z,6.22
2023-03-28T10:04:32.524Z,6.07
2023-03-28T10:07:29.610Z,5.87
2023-03-28T10:10:18.625Z,5.52
2023-03-28T10:12:50.059Z,5.63
2023-03-28T10:15:35.932Z,5.26
2023-03-28T10:18:26.347Z,5.54
2023-03-28T10:21:16.194Z,5.63
2023-03-28T10:23:57.557Z,5.52
2023-03-28T10:26:27.705Z,5.60
2023-03-28T10:29:02.299Z,5.94
2023-03-28T10:31:34.302Z,5.35
2023-03-28T10:34:27.842Z,5.55
2023-03-28T10:37:30.214Z,5.53
2023-03-28T10:40:30.233Z,6.13
2023-03-28T10:43:05.429Z,5.99
2023-03-28T10:46:05.565Z,6.39
2023-03-28T10:48:59.886Z,6.54
2023-03-28T10:51:31.574Z,6.32
2023-03-28T10:54:17.614Z,6.05
2023-03-28T10:56:58.298Z,6.26
2023-03-28T10:59:49.997Z,6.19
2023-03-28T11:02:32.648Z,6.63
2023-03-28T11:05:05.495Z,7.30
2023-03-28T11:07:40.599Z,6.85
2023-03-28T11:10:38.616Z,7.17
2023-03-28T11:13:26.763Z,6.44
2023-03-28T11:15:59.462Z,6.50
2023-03-28T11:18:56.024Z,6.09
2023-03-28T11:21:33.269Z,6.94
2023-03-28T11:24:14.805Z,6.76
2023-03-28T11:27:16.665Z,6.56
2023-03-28T11:29:50.224Z,6.78
2023-03-28T11:32:28.554Z,5.81
2023-03-28T11:35:05.198Z,6.47
2023-03-28T11:37:38.885Z,6.32
2023-03-28T11:40:15.548Z,6.05
2023-03-28T11:42:58.115Z,6.13
2023-03-28T11:45:49.474Z,6.48
2023-03-28T11:48:27.421Z,6.60
2023-03-28T11:51:11.349Z,7.11
2023-03-28T11:54:03.885Z,6.16
2023-03-28T11:56:46.545Z,6.48
2023-03-28T11:59:26.309Z,6.13
2023-03-28T12:02:36.600Z,5.95
2023-03-28T12:05:10.408Z,5.82
2023-03-28T12:07:49.867Z,6.07
2023-03-28T12:10:31.345Z,6.39
2023-03-28T12:13:09.228Z,6.98
2023-03-28T12:15:46.892Z,6.15
2023-03-28T12:18:24.296Z,6.06
2023-03-28T12:21:00.658Z,6.73
2023-03-28T12:23:54.254Z,6.52
2023-03-28T12:26:50.458Z,6.76
2023-03-28T12:29:26.187Z,6.85
2023-03-28T12:31:58.538Z,6.50
2023-03-28T12:34:32.180Z,6.59
2023-03-28T12:37:31.154Z,7.46
2023-03-28T12:40:13.679Z,7.05
2023-03-28T12:42:43.235Z,6.84
2023-03-28T12:45:16.483Z,6.54
2023-03-28T12:47:48.367Z,6.31
2023-03-28T12:50:20.174Z,6.95
2023-03-28T12:52:52.205Z,7.11
2023-03-28T12:55:47.135Z,6.65
2023-03-28T12:58:35.129Z,6.75
2023-03-28T13:01:34.935Z,6.36
2023-03-28T13:04:32.618Z,7.28
2023-03-28T13:07:25.094Z,7.35
2023-03-28T13:10:00.000Z,7.95
2023-03-28T13:12:41.341Z,7.96
2023-03-28T13:15:50.473Z,6.61
2023-03-28T13:18:33.575Z,7.61
2023-03-28T13:21:08.463Z,7.43
2023-03-28T13:23:56.900Z,7.58
2023-03-28T13:26:26.694Z,7.41
2023-03-28T13:29:03.285Z,7.12
2023-03-28T13:31:33.718Z,6.99
2023-03-28T13:34:05.077Z,6.66
2023-03-28T13:36:38.743Z,6.80
2023-03-28T13:39:21.580Z,7.47
2023-03-28T13:42:02.870Z,7.08
2023-03-28T13:44:41.039Z,6.92
2023-03-28T13:47:16.505Z,6.96
2023-03-28T13:49:47.076Z,7.40
2023-03-28T13:52:22.185Z,7.86
2023-03-28T13:54:54.778Z,7.93
2023-03-28T13:57:32.528Z,7.98
2023-03-28T14:00:12.398Z,7.84
2023-03-28T14:02:43.837Z,7.92
2023-03-28T14:05:20.783Z,8.47
2023-03-28T14:07:51.661Z,8.13
2023-03-28T14:10:29.800Z,7.57
2023-03-28T14:13:00.215Z,7.50
2023-03-28T14:15:30.605Z,7.47
2023-03-28T14:18:00.098Z,7.53
2023-03-28T14:20:29.347Z,7.64
2023-03-28T14:23:01.578Z,6.99
2023-03-28T14:25:31.497Z,7.27
2023-03-28T14:28:08.837Z,7.90
2023-03-28T14:30:42.434Z,7.88
2023-03-28T14:33:21.931Z,8.03
2023-03-28T14:36:01.914Z,7.71
2023-03-28T14:38:33.776Z,8.07
2023-03-28T14:41:14.086Z,7.66
2023-03-28T14:43:43.388Z,7.57
2023-03-28T14:46:13.000Z,7.26
2023-03-28T14:48:47.523Z,7.33
2023-03-28T14:51:16.393Z,7.92
2023-03-28T14:53:55.733Z,7.54
2023-03-28T14:56:26.373Z,7.63
2023-03-28T14:59:04.501Z,7.74
2023-03-28T15:01:36.430Z,7.85
2023-03-28T15:04:08.412Z,7.63
2023-03-28T15:06:39.501Z,8.41
2023-03-28T15:09:29.526Z,8.34
2023-03-28T15:12:01.275Z,7.59
2023-03-28T15:17:40.148Z,8.13
2023-03-28T15:20:13.044Z,7.94
2023-03-28T15:22:41.673Z,8.51
2023-03-28T15:25:15.615Z,8.83
2023-03-28T15:27:57.597Z,8.76
2023-03-28T15:30:30.459Z,8.00
2023-03-28T15:33:24.103Z,7.80
2023-03-28T15:36:22.893Z,7.94
2023-03-28T15:38:56.721Z,8.12
2023-03-28T15:41:29.200Z,8.08
2023-03-28T15:44:01.885Z,7.83
2023-03-28T15:46:33.802Z,7.72
2023-03-28T15:49:06.614Z,7.80
2023-03-28T15:51:51.732Z,7.42
2023-03-28T15:54:31.230Z,6.97
2023-03-28T15:57:11.840Z,7.19
2023-03-28T15:59:44.013Z,7.76
2023-03-28T16:02:37.763Z,7.83
2023-03-28T16:05:16.639Z,7.32
2023-03-28T16:07:52.091Z,7.48
2023-03-28T16:10:22.006Z,7.14
2023-03-28T16:13:15.008Z,7.15
2023-03-28T16:16:41.615Z,7.25
2023-03-28T16:19:47.111Z,7.17
2023-03-28T16:22:15.900Z,6.98
2023-03-28T16:24:47.036Z,6.88
2023-03-28T16:27:15.451Z,7.01
2023-03-28T16:29:46.956Z,6.91
2023-03-28T16:32:17.020Z,6.62
2023-03-28T16:34:45.641Z,6.67
2023-03-28T16:37:14.020Z,6.69
2023-03-28T16:39:43.124Z,6.60
2023-03-28T16:42:11.944Z,6.51
2023-03-28T16:44:48.781Z,6.81
2023-03-28T16:47:18.395Z,6.94
2023-03-28T16:49:48.790Z,6.50
2023-03-28T16:53:24.269Z,6.42
2023-03-28T16:56:14.541Z,6.90
2023-03-28T16:58:48.816Z,6.25
2023-03-28T17:01:22.397Z,5.97
2023-03-28T17:03:52.836Z,5.68
2023-03-28T17:06:23.547Z,5.95
2023-03-28T17:08:54.583Z,5.51
2023-03-28T17:11:24.364Z,5.14
2023-03-28T17:13:54.615Z,5.28
2023-03-28T17:16:26.602Z,5.27
2023-03-28T17:19:09.651Z,5.17
2023-03-28T17:21:40.241Z,5.14
2023-03-28T17:24:11.640Z,5.28
2023-03-28T17:26:42.254Z,4.98
2023-03-28T17:29:12.548Z,4.93
2023-03-28T17:31:43.124Z,4.65
2023-03-28T17:34:14.849Z,4.84
2023-03-28T17:36:44.509Z,4.89
2023-03-28T17:39:23.621Z,4.86
2023-03-28T17:42:02.789Z,4.97
2023-03-28T17:44:33.056Z,4.69
2023-03-28T17:47:05.630Z,4.87
2023-03-28T17:49:37.254Z,4.82
2023-03-28T17:52:08.270Z,4.74
2023-03-28T17:54:40.959Z,4.56
2023-03-28T17:57:10.464Z,4.61
2023-03-28T17:59:40.248Z,4.64
2023-03-28T18:02:20.135Z,4.61
2023-03-28T18:05:01.911Z,4.60
2023-03-28T18:07:35.272Z,4.50
2023-03-28T18:10:09.327Z,4.55
2023-03-28T18:12:39.271Z,4.53
2023-03-28T18:15:10.949Z,4.50
2023-03-28T18:17:45.905Z,4.77
2023-03-28T18:20:17.024Z,4.48
2023-03-28T18:22:49.121Z,4.66
2023-03-28T18:25:19.309Z,4.72
2023-03-28T18:27:49.237Z,4.72
2023-03-28T18:30:19.698Z,4.61
2023-03-28T18:32:55.032Z,4.65
2023-03-28T18:35:25.312Z,4.74
2023-03-28T18:37:55.582Z,4.75
2023-03-28T18:40:28.622Z,4.73
2023-03-28T18:42:57.889Z,4.71
2023-03-28T18:45:29.351Z,4.40
2023-03-28T18:48:02.076Z,4.42
2023-03-28T18:50:33.346Z,4.44
2023-03-28T18:53:05.757Z,4.33
2023-03-28T18:55:36.567Z,4.53
2023-03-28T18:58:10.385Z,4.29
2023-03-28T19:00:44.758Z,4.16
2023-03-28T19:03:17.452Z,4.37
2023-03-28T19:05:47.808Z,4.39
2023-03-28T19:08:18.287Z,4.35
2023-03-28T19:10:52.980Z,4.43
2023-03-28T19:13:38.089Z,4.46
2023-03-28T19:16:10.405Z,4.06
2023-03-28T19:18:47.506Z,3.97
2023-03-28T19:21:18.394Z,3.94
2023-03-28T19:23:50.877Z,3.62
2023-03-28T19:26:22.158Z,3.31
2023-03-28T19:28:52.394Z,3.32
2023-03-28T19:31:39.333Z,2.92
2023-03-28T19:34:12.233Z,2.61
2023-03-28T19:36:49.433Z,2.54
2023-03-28T19:39:23.515Z,2.34
2023-03-28T19:42:00.661Z,2.16
2023-03-28T19:44:37.805Z,2.09
2023-03-28T19:47:08.965Z,2.02
2023-03-28T19:49:41.943Z,1.93
2023-03-28T19:52:16.580Z,1.87
2023-03-28T19:54:47.670Z,1.90
2023-03-28T19:57:19.405Z,1.95
2023-03-28T19:59:51.488Z,1.76
2023-03-28T20:02:25.035Z,1.66
2023-03-28T20:04:57.563Z,1.70
2023-03-28T20:07:27.412Z,1.83
2023-03-28T20:09:57.535Z,2.08
2023-03-28T20:12:27.840Z,2.13
2023-03-28T20:14:58.002Z,1.92
2023-03-28T20:17:27.802Z,1.71
2023-03-28T20:19:57.825Z,1.66
2023-03-28T20:22:29.974Z,1.59
2023-03-28T20:25:00.738Z,1.52
2023-03-28T20:27:32.717Z,1.71
2023-03-28T20:30:01.562Z,2.34
2023-03-28T20:32:30.617Z,2.39
2023-03-28T20:35:02.449Z,2.37
2023-03-28T20:37:33.033Z,2.23
2023-03-28T20:40:10.451Z,2.28
2023-03-28T20:42:41.069Z,2.34
2023-03-28T20:45:14.054Z,2.40
2023-03-28T20:47:43.224Z,2.45
2023-03-28T20:50:15.969Z,2.21
2023-03-28T20:52:44.357Z,2.52
2023-03-28T20:55:15.604Z,2.70
2023-03-28T20:57:45.426Z,2.82
2023-03-28T21:00:17.557Z,2.68
2023-03-28T21:02:53.721Z,2.71
2023-03-28T21:05:24.946Z,2.73
2023-03-28T21:07:56.387Z,2.71
2023-03-28T21:10:26.801Z,2.69
2023-03-28T21:12:55.385Z,2.73
2023-03-28T21:15:24.118Z,2.76
2023-03-28T21:17:53.928Z,2.80
2023-03-28T21:20:24.376Z,2.80
2023-03-28T21:22:53.817Z,2.60
2023-03-28T21:25:24.610Z,2.44
2023-03-28T21:27:54.093Z,2.21
2023-03-28T21:30:22.648Z,2.16
2023-03-28T21:32:54.821Z,1.98
2023-03-28T21:35:25.174Z,2.09
2023-03-28T21:37:54.669Z,1.97
2023-03-28T21:40:23.770Z,1.67
2023-03-28T21:42:55.061Z,1.45
2023-03-28T21:45:23.393Z,1.29
2023-03-28T21:47:52.620Z,0.97
2023-03-28T21:50:22.300Z,1.21
2023-03-28T21:52:52.354Z,1.55
2023-03-28T21:55:20.748Z,1.33
2023-03-28T21:57:49.723Z,1.32
2023-03-28T22:00:18.482Z,1.41
2023-03-28T22:02:46.931Z,1.44
2023-03-28T22:05:28.759Z,1.37
2023-03-28T22:07:59.794Z,1.33
2023-03-28T22:10:29.485Z,1.28
2023-03-28T22:12:59.491Z,1.04
2023-03-28T22:15:31.659Z,1.07
2023-03-28T22:18:00.392Z,0.86
2023-03-28T22:20:29.915Z,0.82
2023-03-28T22:23:00.913Z,0.98
2023-03-28T22:25:34.654Z,0.90
2023-03-28T22:28:04.051Z,1.15
2023-03-28T22:30:32.814Z,1.03
2023-03-28T22:33:02.681Z,1.14
2023-03-28T22:35:33.642Z,1.37
2023-03-28T22:38:04.146Z,1.23
2023-03-28T22:40:32.833Z,1.49
2023-03-28T22:43:01.508Z,1.71
2023-03-28T22:45:30.176Z,1.48
2023-03-28T22:48:00.919Z,1.54
2023-03-28T22:50:29.767Z,1.83
2023-03-28T22:52:58.251Z,1.42
2023-03-28T22:55:28.554Z,1.47
2023-03-28T22:57:57.171Z,1.65
2023-03-28T23:00:25.732Z,1.76
2023-03-28T23:02:54.452Z,1.48
2023-03-28T23:05:23.345Z,1.58
2023-03-28T23:07:55.138Z,1.42
2023-03-28T23:10:24.989Z,1.17
2023-03-28T23:12:57.314Z,0.82
2023-03-28T23:15:25.663Z,0.71
2023-03-28T23:17:54.013Z,0.53
2023-03-28T23:20:23.112Z,0.41
2023-03-28T23:22:51.917Z,0.36
2023-03-28T23:25:22.394Z,0.25
2023-03-28T23:27:51.044Z,0.14
2023-03-28T23:30:21.324Z,0.10
2023-03-28T23:32:49.644Z,-0.02
2023-03-28T23:35:18.218Z,-0.01
2023-03-28T23:37:52.863Z,0.18
2023-03-28T23:40:22.414Z,0.28
2023-03-28T23:42:50.769Z,0.14
2023-03-28T23:45:21.913Z,-0.07
2023-03-28T23:47:50.246Z,-0.16
2023-03-28T23:50:18.725Z,-0.14
2023-03-28T23:52:47.406Z,-0.20
2023-03-28T23:55:16.389Z,-0.20
2023-03-28T23:57:44.748Z,-0.17
